Terminal Aerodrome Forecast
Issued by NWS

Home | Current Version | Previous Version | Text Only | Print | Product List | Glossary On
Versions: 1 2 3 4 5 6 7 8 9 10 11 12 13 14 15 16 17
726
FTUS44 KBMX 142336
TAFMGM
TAF
KMGM 142336Z 1500/1524 14008KT P6SM BKN250
     FM150400 12006KT P6SM BKN060 BKN200
     FM151500 14009KT P6SM VCSH BKN012 OVC060
     FM152000 19013G22KT 5SM -RA OVC025=

USA.gov is the U.S. government's official web portal to all federal, state and local government web resources and services.